Data for 06/06/2016

Time Sea-Level Adjusted Pressure Absolute Pressure Temperature Relative Humidity Dew Point   
(mb) (inHg) (mb) (inHg) (C) (F) (%) (C) (F)
00:05 1021 30.15 850 25.1 19.5 67 37 4.4 40
00:10 1021 30.15 850 25.1 19.4 66.9 37 4.5 40
00:15 1021 30.15 850 25.1 19.3 66.8 37 4.4 39.8
00:20 1021 30.15 850 25.1 19.3 66.7 37 4.5 40
00:25 1021 30.15 850 25.1 19.2 66.5 37 4.4 39.9
00:30 1021 30.15 850 25.1 19.2 66.5 37 4.4 40
00:35 1021 30.15 850 25.1 19.1 66.3 38 4.5 40
00:40 1021 30.15 850 25.1 19 66.2 38 4.5 40
00:45 1021 30.15 850 25.1 19 66.1 38 4.4 39.8
00:50 1021 30.15 850 25.1 19 66.2 38 4.5 40.1
00:55 1021 30.15 850 25.1 18.9 65.9 38 4.5 40
01:00 1021 30.15 850 25.1 18.7 65.7 39 4.5 40.1
01:05 1021 30.15 850 25.1 18.6 65.5 39 4.4 39.8
01:10 1021 30.15 850 25.1 18.6 65.5 38 4.3 39.7
01:15 1021 30.15 850 25.1 18.7 65.6 38 4.4 39.9
01:20 1021 30.15 850 25.1 18.6 65.4 39 4.4 40
01:25 1021 30.15 850 25.1 18.4 65.1 39 4.3 39.8
01:30 1021 30.15 850 25.1 18.3 65 39 4.4 39.9
01:35 1021 30.15 850 25.1 18.2 64.7 40 4.4 39.8
01:40 1021 30.15 850 25.1 18.1 64.6 40 4.3 39.8
01:45 1021 30.15 850 25.1 18.1 64.6 39 4 39.2
01:50 1021 30.15 850 25.1 18.2 64.8 39 4.2 39.5
01:55 1021 30.15 850 25.1 18.2 64.7 39 4 39.2
02:00 1021 30.15 850 25.1 18.2 64.7 39 4 39.3
02:05 1021 30.15 850 25.1 18.1 64.6 38 3.8 38.9
02:10 1021 30.15 850 25.1 18 64.5 39 3.9 39
02:15 1021 30.15 850 25.1 17.9 64.3 39 3.8 38.8
02:20 1021 30.15 850 25.1 17.8 64.1 39 3.8 38.9
02:25 1021 30.15 850 25.1 17.7 63.9 39 3.8 38.8
02:30 1021 30.15 850 25.1 17.6 63.7 39 3.8 38.8
02:35 1021 30.15 850 25.1 17.4 63.4 40 3.9 39.1
02:40 1021 30.15 850 25.1 17.2 63 41 4 39.2
02:45 1021 30.15 850 25.1 17.1 62.8 41 3.9 39
02:50 1021 30.15 850 25.1 17 62.7 42 4.1 39.3
02:55 1021 30.15 850 25.1 16.9 62.4 43 4.3 39.7
03:00 1021 30.15 850 25.1 16.8 62.2 44 4.5 40.1
03:05 1021 30.15 850 25.1 16.6 61.9 45 4.7 40.5
03:10 1021 30.15 850 25.1 16.4 61.5 46 4.9 40.8
03:15 1021 30.15 850 25.1 16.3 61.3 46 4.9 40.8
03:20 1021 30.15 850 25.1 16.2 61.2 47 5 40.9
03:25 1021 30.15 850 25.1 16.1 61 47 5.1 41.1
03:30 1021 30.15 850 25.1 16 60.8 48 5 41
03:35 1021 30.15 850 25.1 15.9 60.7 48 5 41
03:40 1021 30.15 850 25.1 15.9 60.5 49 5.2 41.3
03:45 1021 30.15 850 25.1 15.7 60.2 50 5.3 41.5
03:50 1021 30.15 850 25.1 15.5 59.9 51 5.4 41.7
03:55 1021 30.15 850 25.1 15.4 59.6 51 5.3 41.5
04:00 1021 30.15 850 25.1 15.2 59.4 51 5.3 41.6
04:05 1021 30.15 850 25.1 15.2 59.3 51 5.3 41.5
04:10 1021 30.15 850 25.1 15.1 59.3 52 5.4 41.7
04:15 1021 30.15 850 25.1 15.1 59.1 52 5.4 41.7
04:20 1021 30.15 850 25.1 15 59 53 5.5 41.9
04:25 1021 30.15 850 25.1 14.8 58.6 54 5.5 41.9
04:30 1021 30.15 850 25.1 14.7 58.5 53 5.4 41.7
04:35 1021 30.15 850 25.1 14.7 58.5 53 5.4 41.7
04:40 1021 30.15 850 25.1 14.6 58.2 54 5.4 41.8
04:45 1021 30.15 850 25.1 14.6 58.2 54 5.5 41.9
04:50 1021 30.15 850 25.1 14.4 58 55 5.5 41.9
04:55 1021 30.15 850 25.1 14.4 57.9 54 5.3 41.6
05:00 1021 30.15 850 25.1 14.5 58.2 54 5.4 41.8
05:05 1021 30.15 850 25.1 14.5 58.1 54 5.5 41.9
05:10 1021 30.15 850 25.1 14.5 58 54 5.3 41.6
05:15 1021 30.15 850 25.1 14.4 57.9 55 5.5 41.9
05:20 1021 30.15 850 25.1 14.3 57.7 55 5.5 41.9
05:25 1021 30.15 850 25.1 14.3 57.7 55 5.4 41.7
05:30 1021 30.15 850 25.1 14.4 57.8 55 5.5 41.8
05:35 1021 30.15 850 25.1 14.2 57.6 55 5.5 41.9
05:40 1021 30.15 850 25.1 14.2 57.5 55 5.5 41.9
05:45 1021 30.15 850 25.1 14.2 57.6 55 5.4 41.8
05:50 1021 30.15 850 25.1 14.2 57.6 55 5.4 41.7
05:55 1021 30.15 850 25.1 14.3 57.7 55 5.5 41.9
06:00 1021 30.15 850 25.1 14.2 57.6 55 5.5 41.8
06:05 1021 30.15 850 25.1 14.3 57.7 55 5.4 41.8
06:10 1021 30.15 850 25.1 14.3 57.7 55 5.5 41.9
06:15 1021 30.15 850 25.1 14.4 57.8 55 5.4 41.8
06:20 1021 30.15 850 25.1 14.4 58 54 5.3 41.5
06:25 1021 30.15 850 25.1 14.6 58.2 54 5.3 41.6
06:30 1021 30.15 850 25.1 14.6 58.4 53 5.2 41.3
06:35 1021 30.15 850 25.1 14.7 58.5 53 5.3 41.5
06:40 1021 30.15 850 25.1 14.8 58.6 53 5.3 41.5
06:45 1021 30.15 850 25.1 14.9 58.8 52 5.1 41.2
06:50 1021 30.15 850 25.1 15 59.1 51 5.1 41.2
06:55 1021 30.15 850 25.1 15.1 59.2 50 4.9 40.8
07:00 1021 30.15 850 25.1 15.2 59.4 50 5 41
07:05 1021 30.15 850 25.1 15.4 59.7 50 5.1 41.2
07:10 1021 30.15 850 25.1 15.4 59.7 50 5.1 41.3
07:15 1021 30.15 850 25.1 15.6 60 49 5.1 41.1
07:20 1021 30.15 850 25.1 15.9 60.6 48 5 41.1
07:25 1021 30.15 850 25.1 15.9 60.6 48 5 40.9
07:30 1021 30.15 850 25.1 15.9 60.6 48 5 41
07:35 1021 30.15 850 25.1 16.1 60.9 47 4.9 40.9
07:40 1021 30.15 850 25.1 16.2 61.1 47 5.1 41.1
07:45 1021 30.15 850 25.1 16.3 61.4 47 5 41
07:50 1021 30.15 850 25.1 16.4 61.6 47 5.1 41.2
07:55 1021 30.15 850 25.1 16.8 62.2 45 5 41
08:00 1021 30.15 850 25.1 17 62.5 45 5.2 41.4
08:05 1021 30.15 850 25.1 16.9 62.4 46 5.2 41.4
08:10 1021 30.15 850 25.1 16.8 62.3 46 5.2 41.3
08:15 1021 30.15 850 25.1 17 62.5 45 5.1 41.1
08:20 1021 30.15 850 25.1 17.2 62.9 44 4.9 40.9
08:25 1021 30.15 850 25.1 17.3 63.1 44 5.1 41.1
08:30 1021 30.15 850 25.1 17.3 63.1 44 5 40.9
08:35 1021 30.15 850 25.1 17.4 63.3 44 5 41
08:40 1021 30.15 850 25.1 17.6 63.7 43 5.1 41.2
08:45 1021 30.15 850 25.1 17.9 64.2 42 5.1 41.1
08:50 1021 30.15 850 25.1 17.9 64.2 43 5.3 41.5
08:55 1021 30.15 850 25.1 18.1 64.5 43 5.3 41.6
09:00 1021 30.15 850 25.1 18.4 65.1 42 5.4 41.8
09:05 1021 30.15 850 25.1 18.5 65.2 42 5.6 42
09:10 1021 30.15 850 25.1 18.9 66 41 5.5 42
09:15 1021 30.15 850 25.1 19.4 66.9 39 5.3 41.6
09:20 1021 30.15 850 25.1 19.2 66.5 40 5.4 41.8
09:25 1021 30.15 850 25.1 19 66.2 42 5.8 42.5
09:30 1021 30.15 850 25.1 19.4 66.8 40 5.7 42.3
09:35 1021 30.15 850 25.1 19.8 67.7 40 5.8 42.5
09:40 1021 30.15 850 25.1 20 68 39 5.9 42.5
09:45 1021 30.15 850 25.1 20.6 69 38 5.8 42.4
09:50 1021 30.15 850 25.1 20.4 68.7 38 5.8 42.4
09:55 1021 30.15 850 25.1 20.1 68.3 39 5.9 42.6
10:00 1020 30.12 850 25.1 20.4 68.6 38 5.7 42.2
10:05 1020 30.12 850 25.1 20.4 68.8 38 5.9 42.5
10:10 1020 30.12 850 25.1 20.6 69 36 5.3 41.6
10:15 1020 30.12 850 25.1 20.7 69.3 37 5.7 42.3
10:20 1020 30.12 849 25.07 21.2 70.1 37 6 42.8
10:25 1020 30.12 849 25.07 21.1 70 36 5.5 42
10:30 1020 30.12 849 25.07 21.5 70.7 36 5.8 42.4
10:35 1020 30.12 849 25.07 21.5 70.7 35 5.6 42
10:40 1020 30.12 849 25.07 21.7 71.1 34 5.3 41.6
10:45 1020 30.12 849 25.07 22.2 71.9 34 5.7 42.3
10:50 1020 30.12 849 25.07 21.9 71.4 34 5.5 41.9
10:55 1020 30.12 849 25.07 21.9 71.4 33 5.3 41.5
11:00 1020 30.12 849 25.07 22.2 71.9 33 5.6 42
11:05 1020 30.12 849 25.07 22.2 71.9 33 5.5 41.9
11:10 1020 30.12 849 25.07 22.5 72.6 32 5.3 41.6
11:15 1020 30.12 849 25.07 22.4 72.3 33 5.6 42
11:20 1020 30.12 849 25.07 22.9 73.2 33 5.8 42.4
11:25 1020 30.12 849 25.07 22.8 73 33 5.7 42.2
11:30 1020 30.12 849 25.07 22.7 72.8 33 5.8 42.5
11:35 1020 30.12 849 25.07 23.2 73.7 32 5.9 42.7
11:40 1020 30.12 849 25.07 23 73.4 33 6.1 43
11:45 1020 30.12 849 25.07 23.1 73.7 33 6.1 42.9
11:50 1020 30.12 849 25.07 23.1 73.6 33 6.1 43
11:55 1020 30.12 849 25.07 23.2 73.7 33 6 42.8
12:00 1019 30.09 849 25.07 23.9 74.9 31 5.8 42.5
12:05 1019 30.09 849 25.07 23.8 74.8 32 6.3 43.4
12:10 1019 30.09 849 25.07 24 75.2 31 6.3 43.3
12:15 1019 30.09 848 25.04 24 75.1 32 6.3 43.3
12:20 1019 30.09 848 25.04 23.8 74.8 32 6.3 43.3
12:25 1019 30.09 848 25.04 23.7 74.7 32 6.2 43.2
12:30 1019 30.09 848 25.04 24.3 75.7 30 5.8 42.5
12:35 1019 30.09 848 25.04 24.1 75.4 31 6.2 43.1
12:40 1019 30.09 848 25.04 24.5 76.1 30 5.8 42.5
12:45 1019 30.09 848 25.04 25 77.1 29 5.9 42.7
12:50 1019 30.09 848 25.04 25 77.1 29 6.2 43.2
12:55 1019 30.09 848 25.04 25.3 77.5 30 6.7 44
13:00 1019 30.09 848 25.04 25.4 77.7 29 6.5 43.6
13:05 1019 30.09 848 25.04 25.2 77.3 30 6.5 43.7
13:10 1019 30.09 848 25.04 25.3 77.5 30 6.6 43.9
13:15 1019 30.09 848 25.04 25.3 77.5 30 6.6 43.8
13:20 1019 30.09 848 25.04 25.7 78.2 31 7.3 45.2
13:25 1019 30.09 848 25.04 25.2 77.4 31 7 44.6
13:30 1018 30.06 848 25.04 25.7 78.3 30 7.3 45.1
13:35 1018 30.06 848 25.04 25.9 78.6 29 6.7 44
13:40 1018 30.06 848 25.04 25.9 78.7 29 6.7 44.1
13:45 1018 30.06 847 25.01 26.3 79.4 29 7.1 44.7
13:50 1018 30.06 847 25.01 26.2 79.1 29 7.1 44.8
13:55 1018 30.06 847 25.01 26.2 79.2 28 6.8 44.2
14:00 1018 30.06 847 25.01 26.2 79.2 28 6.6 43.9
14:05 1018 30.06 847 25.01 26.1 79.1 29 6.8 44.3
14:10 1018 30.06 847 25.01 26.4 79.6 28 6.6 44
14:15 1018 30.06 847 25.01 26.4 79.5 28 6.9 44.3
14:20 1018 30.06 847 25.01 26.6 79.8 26 5.6 42
14:25 1018 30.06 847 25.01 26.4 79.5 27 6.1 42.9
14:30 1018 30.06 847 25.01 26.6 79.9 26 5.9 42.7
14:35 1018 30.06 847 25.01 26.2 79.2 27 6 42.7
14:40 1018 30.06 847 25.01 26.1 79.1 28 6.2 43.2
14:45 1018 30.06 847 25.01 26.4 79.5 26 5.7 42.2
14:50 1018 30.06 847 25.01 26.4 79.4 26 5.8 42.4
14:55 1017 30.03 847 25.01 26.6 79.8 26 5.6 42.1
15:00 1017 30.03 847 25.01 26.7 80 26 6 42.7
15:05 1017 30.03 847 25.01 26.8 80.2 26 5.9 42.5
15:10 1017 30.03 846 24.98 26.8 80.3 26 6 42.8
15:15 1017 30.03 846 24.98 26.6 79.9 27 6.6 43.8
15:20 1017 30.03 846 24.98 26.8 80.2 28 6.8 44.3
15:25 1017 30.03 846 24.98 26.8 80.3 27 6.3 43.4
15:30 1017 30.03 846 24.98 26.9 80.4 27 6.7 44
15:35 1017 30.03 846 24.98 27.3 81.2 27 7 44.6
15:40 1017 30.03 846 24.98 27.2 81 27 6.8 44.3
15:45 1017 30.03 846 24.98 27.1 80.8 27 6.5 43.8
15:50 1017 30.03 846 24.98 26.8 80.2 27 6.7 44
15:55 1017 30.03 846 24.98 27 80.6 27 6.6 44
16:00 1017 30.03 846 24.98 27 80.5 28 7.3 45.2
16:05 1017 30.03 846 24.98 26.8 80.2 28 7 44.6
16:10 1017 30.03 846 24.98 26.7 80.1 28 6.8 44.2
16:15 1017 30.03 846 24.98 26.6 79.9 28 6.8 44.2
16:20 1017 30.03 846 24.98 26.7 80.1 28 6.9 44.3
16:25 1016 30 846 24.98 27 80.6 28 7 44.6
16:30 1016 30 846 24.98 26.7 80.1 27 6.6 43.8
16:35 1016 30 845 24.95 26.6 80 28 6.9 44.4
16:40 1016 30 845 24.95 26.7 80 28 7.1 44.8
16:45 1016 30 845 24.95 26.7 80 28 6.7 44.1
16:50 1016 30 845 24.95 26.6 79.9 29 7.2 44.9
16:55 1016 30 845 24.95 26.4 79.6 29 7.1 44.8
17:00 1016 30 845 24.95 26.4 79.6 29 7 44.6
17:05 1016 30 845 24.95 26.3 79.3 29 7.1 44.7
17:10 1016 30 845 24.95 26.3 79.3 29 7 44.7
17:15 1016 30 845 24.95 26.3 79.3 28 6.7 44.1
17:20 1016 30 845 24.95 26.2 79.1 28 6.7 44
17:25 1016 30 845 24.95 26.1 78.9 28 6.6 43.8
17:30 1016 30 845 24.95 26 78.8 29 6.6 43.9
17:35 1016 30 845 24.95 25.9 78.7 29 6.6 43.9
17:40 1016 30 845 24.95 25.9 78.5 29 6.6 43.9
17:45 1016 30 845 24.95 25.7 78.3 29 6.8 44.3
17:50 1016 30 845 24.95 25.8 78.4 29 6.8 44.3
17:55 1016 30 845 24.95 25.7 78.3 28 6.3 43.4
18:00 1016 30 845 24.95 25.5 78 29 6.4 43.4
18:05 1016 30 845 24.95 25.4 77.7 28 5.7 42.3
18:10 1016 30 845 24.95 25.4 77.6 28 5.8 42.5
18:15 1016 30 845 24.95 25.2 77.4 28 5.7 42.2
18:20 1016 30 845 24.95 25.1 77.2 28 5.8 42.4
18:25 1016 30 845 24.95 24.9 76.9 28 5.6 42.1
18:30 1016 30 845 24.95 24.8 76.6 28 5.4 41.7
18:35 1016 30 845 24.95 24.7 76.5 29 5.9 42.7
18:40 1016 30 845 24.95 24.6 76.2 29 5.6 42.1
18:45 1016 30 845 24.95 24.4 76 29 5.4 41.8
18:50 1016 30 845 24.95 24.3 75.7 30 5.7 42.2
18:55 1016 30 845 24.95 24.1 75.5 30 5.5 41.9
19:00 1016 30 845 24.95 24 75.2 30 5.4 41.7
19:05 1016 30 845 24.95 23.8 74.9 30 5.4 41.8
19:10 1016 30 845 24.95 23.7 74.7 31 5.7 42.3
19:15 1016 30 845 24.95 23.6 74.5 31 5.9 42.6
19:20 1016 30 845 24.95 23.4 74.2 32 6.1 43.1
19:25 1016 30 845 24.95 23.4 74 33 6.3 43.3
19:30 1016 30 845 24.95 23.1 73.6 34 6.4 43.6
19:35 1016 30 845 24.95 23 73.4 34 6.3 43.3
19:40 1016 30 845 24.95 22.9 73.2 34 6.4 43.4
19:45 1016 30 845 24.95 22.7 72.9 35 6.5 43.7
19:50 1016 30 845 24.95 22.6 72.6 35 6.6 43.9
19:55 1016 30 845 24.95 22.4 72.3 36 6.6 43.9
20:00 1016 30 845 24.95 22.2 72 36 6.5 43.8
20:05 1016 30 845 24.95 22.1 71.8 36 6.7 44
20:10 1016 30 845 24.95 22 71.6 37 7 44.5
20:15 1016 30 846 24.98 21.7 71 38 7.1 44.8
20:20 1016 30 846 24.98 21.5 70.7 39 7.1 44.7
20:25 1016 30 846 24.98 21.5 70.7 38 6.8 44.2
20:30 1016 30 846 24.98 21.6 70.9 38 7 44.5
20:35 1016 30 846 24.98 21.5 70.7 39 7.2 44.9
20:40 1016 30 846 24.98 21.4 70.5 39 7 44.6
20:45 1016 30 846 24.98 21.4 70.5 39 7.1 44.7
20:50 1016 30 846 24.98 21.3 70.3 39 7.1 44.8
20:55 1016 30 846 24.98 21.2 70.2 39 7 44.7
21:00 1016 30 846 24.98 21.2 70.1 40 7.1 44.7
21:05 1016 30 846 24.98 21.1 70.1 40 7.1 44.7
21:10 1016 30 846 24.98 21.2 70.1 40 7.3 45.1
21:15 1016 30 846 24.98 21 69.8 40 7.1 44.8
21:20 1016 30 846 24.98 21 69.8 41 7.3 45.1
21:25 1016 30 846 24.98 20.9 69.7 41 7.2 44.9
21:30 1016 30 846 24.98 20.9 69.7 41 7.2 45
21:35 1016 30 846 24.98 20.8 69.4 41 7.3 45.1
21:40 1016 30 846 24.98 20.8 69.4 41 7.1 44.9
21:45 1017 30.03 846 24.98 20.8 69.4 41 7.2 44.9
21:50 1017 30.03 846 24.98 20.8 69.4 41 7.1 44.8
21:55 1017 30.03 846 24.98 20.7 69.3 41 7.2 44.9
22:00 1017 30.03 846 24.98 20.6 69.1 41 7.1 44.9
22:05 1017 30.03 846 24.98 20.5 68.9 42 7.1 44.9
22:10 1017 30.03 846 24.98 20.5 68.8 41 7 44.6
22:15 1017 30.03 846 24.98 20.4 68.8 41 7 44.6
22:20 1017 30.03 846 24.98 20.4 68.7 41 6.9 44.4
22:25 1017 30.03 846 24.98 20.4 68.7 41 6.9 44.4
22:30 1016 30 846 24.98 20.3 68.6 42 7.1 44.7
22:35 1016 30 846 24.98 20.1 68.2 42 6.9 44.5
22:40 1016 30 846 24.98 20.1 68.2 42 6.9 44.5
22:45 1016 30 846 24.98 20.1 68.1 42 6.8 44.2
22:50 1016 30 845 24.95 20.1 68.2 42 7 44.5
22:55 1016 30 845 24.95 19.9 67.8 43 6.9 44.5
23:00 1016 30 845 24.95 19.8 67.7 43 7 44.7
23:05 1016 30 845 24.95 19.8 67.6 43 7 44.6
23:10 1016 30 845 24.95 19.8 67.7 43 7.1 44.8
23:15 1016 30 845 24.95 19.7 67.5 43 7.1 44.8
23:20 1016 30 845 24.95 19.8 67.6 43 7.1 44.7
23:25 1016 30 845 24.95 19.8 67.7 43 7.1 44.7
23:30 1016 30 845 24.95 19.7 67.5 44 7.3 45.1
23:35 1016 30 845 24.95 19.6 67.2 44 7.3 45.1
23:40 1016 30 845 24.95 19.5 67.1 44 7.2 44.9
23:45 1016 30 845 24.95 19.5 67.1 44 7.1 44.9
23:50 1016 30 846 24.98 19.5 67.1 45 7.3 45.2
23:55 1016 30 846 24.98 19.4 66.8 45 7.4 45.3
24:00 1016 30 846 24.98 19.4 66.9 45 7.4 45.3